Details From YBBN - Brisbane Intl
To YGLA - Gladstone
Flight Number -
Tags decoded
Created
Modified
Stats Distance 237 nm / 439 km
Max Altitude 0 ft / 0 m
Waypoints 4
Social Downloads 0
Likes 0
Share

Download

Looking for another format? Having issues loading an existing format? Contact us
Advertisement - Login to hide

Notes

Requested: YBBN BN V308 SAGLI KETEN GLA YGLA Unmatched points: SAGLI

Route

YBBN KETEN GLA YGLA

ID Type Via Altitude (ft/m) Position (lat/lon) Dist (leg/tot) Name
O YBBN APT - 0 / 0 -27.37580 / 153.12800 - / 0 nm Brisbane Intl
KETEN FIX - 0 / 0 -25.07150 / 152.02400 150 / 150 nm
GLA VOR - 0 / 0 -23.86530 / 151.20400 85 / 235 nm GLADSTONE
O YGLA APT - 0 / 0 -23.86960 / 151.22500 1 / 236 nm Gladstone

Altitude Profile

Advertisement - Login to hide

Weather


0- 5 10 15 20 25 30 35+ Temperature / °C

Clouds and Precipitation
Forecast for 2020-10-28 18:00 UTC. Updated 7 hours ago

Ground ~20,000 ft ~40,000 ft Winds

YBBN

Details ICAO YBBN (BNE)
Name Brisbane Intl
Region Australia
Timezone Australia/Brisbane (UTC+10.0)
Stats Elevation 15 ft / 5 m (AMSL)
Location -27.375800° 153.128000°
Runways 2
Magnetic Variation 10.999° E

METAR

Not found

TAF

TAF AMD YBBN 281709Z 2818/3000 30008KT 9999 FEW020 FM282300 02012KT 9999 SCT030 FM290800 30007KT CAVOK FM291200 24008KT CAVOK FM291600 15008KT 9999 FEW010 PROB30 TEMPO 2902/2907 VRB25G40KT 1000 TSRA BKN010 SCT035CB

Decode

Departure Runways

ID Width Length Bearing (true/mag) Surface Threshold Overrun Markings Lighting
01 148 ft / 45 m 11,744 ft / 3,580 m 26.93° / 15.93° ASPHALT 213 ft / 65 m 0 ft / 0 m PREC-APP CENTERLINE EDGE THRESHOLD CALVERT REIL-OMNI
14 98 ft / 30 m 5,787 ft / 1,764 m 145.66° / 134.67° ASPHALT 197 ft / 60 m 0 ft / 0 m PREC-APP EDGE THRESHOLD
19 148 ft / 45 m 11,744 ft / 3,580 m 206.92° / 195.93° ASPHALT 0 ft / 0 m 0 ft / 0 m PREC-APP CENTERLINE EDGE THRESHOLD CALVERT TDZ REIL-OMNI
32 98 ft / 30 m 5,787 ft / 1,764 m 325.66° / 314.66° ASPHALT 197 ft / 60 m 0 ft / 0 m PREC-APP EDGE THRESHOLD

YGLA

Details ICAO YGLA (GLT)
Name Gladstone
Region Australia
Timezone Australia/Brisbane (UTC+10.0)
Stats Elevation 58 ft / 18 m (AMSL)
Location -23.869600° 151.225000°
Runways 1
Magnetic Variation 9.509° E

METAR

Not found

TAF

TAF AMD YGLA 281809Z 2818/2906 31005KT 9999 SCT025 FM290000 29010KT CAVOK

Decode

Destination Runways

ID Width Length Bearing (true/mag) Surface Threshold Overrun Markings Lighting
10 148 ft / 45 m 6,305 ft / 1,922 m 110.23° / 100.73° ASPHALT 315 ft / 96 m 0 ft / 0 m PREC-APP CENTERLINE EDGE THRESHOLD REIL-OMNI
28 148 ft / 45 m 6,305 ft / 1,922 m 290.23° / 280.72° ASPHALT 551 ft / 168 m 0 ft / 0 m PREC-APP CENTERLINE EDGE THRESHOLD

Approach Navaids

Runway Type Ident Frequency Range Bearing (true/mag) Slope Elevation
10 GS IGL 110.90 MHz 10 nm / 19 km 110.23° / 100.72 ° 3.00° 58 ft / 18 m (AMSL)
10 LOC-ILS IGL 110.90 MHz 18 nm / 33 km 110.23° / 100.72 ° - 58 ft / 18 m (AMSL)

Popular Alternatives